createdAt,value
2023-01-13T00:01:45.540Z,99893.81
2023-01-13T00:04:14.629Z,99899.28
2023-01-13T00:06:43.960Z,99893.66
2023-01-13T00:09:13.359Z,99899.28
2023-01-13T00:11:42.517Z,99900.72
2023-01-13T00:14:11.820Z,99891.28
2023-01-13T00:16:42.240Z,99887.63
2023-01-13T00:19:11.561Z,99892.81
2023-01-13T00:21:40.878Z,99885.66
2023-01-13T00:24:10.480Z,99872.34
2023-01-13T00:26:39.546Z,99879.50
2023-01-13T00:29:09.378Z,99861.84
2023-01-13T00:31:38.416Z,99870.75
2023-01-13T00:34:09.387Z,99864.50
2023-01-13T00:36:38.510Z,99859.09
2023-01-13T00:39:07.836Z,99852.19
2023-01-13T00:41:50.824Z,99852.06
2023-01-13T00:44:20.449Z,99842.97
2023-01-13T00:46:49.544Z,99847.72
2023-01-13T00:49:20.329Z,99842.31
2023-01-13T00:51:49.370Z,99843.53
2023-01-13T00:54:18.773Z,99840.50
2023-01-13T00:56:47.796Z,99830.16
2023-01-13T00:59:17.174Z,99825.75
2023-01-13T01:01:46.378Z,99829.84
2023-01-13T01:04:15.683Z,99816.81
2023-01-13T01:06:46.074Z,99813.22
2023-01-13T01:09:17.112Z,99815.88
2023-01-13T01:11:46.889Z,99811.50
2023-01-13T01:14:16.523Z,99801.75
2023-01-13T01:16:46.832Z,99807.78
2023-01-13T01:19:16.236Z,99810.72
2023-01-13T01:21:47.088Z,99802.06
2023-01-13T01:24:17.224Z,99801.84
2023-01-13T01:26:46.285Z,99801.13
2023-01-13T01:29:16.616Z,99797.00
2023-01-13T01:31:46.195Z,99793.63
2023-01-13T01:34:15.423Z,99793.56
2023-01-13T01:36:45.884Z,99799.88
2023-01-13T01:39:15.445Z,99784.78
2023-01-13T01:42:04.670Z,99774.25
2023-01-13T01:44:51.600Z,99772.38
2023-01-13T01:47:21.315Z,99777.66
2023-01-13T01:49:51.705Z,99766.19
2023-01-13T01:52:26.448Z,99761.56
2023-01-13T01:54:59.853Z,99764.03
2023-01-13T01:57:37.052Z,99748.75
2023-01-13T02:00:08.334Z,99762.06
2023-01-13T02:02:46.665Z,99756.69
2023-01-13T02:05:17.047Z,99755.59
2023-01-13T02:07:50.767Z,99743.97
2023-01-13T02:10:21.615Z,99752.06
2023-01-13T02:12:51.877Z,99747.44
2023-01-13T02:15:24.367Z,99744.16
2023-01-13T02:18:17.470Z,99742.41
2023-01-13T02:21:36.702Z,99738.09
2023-01-13T02:25:03.038Z,99736.19
2023-01-13T02:27:59.337Z,99724.72
2023-01-13T02:31:00.910Z,99733.63
2023-01-13T02:33:43.253Z,99717.31
2023-01-13T02:36:20.865Z,99713.78
2023-01-13T02:38:59.365Z,99717.31
2023-01-13T02:41:52.996Z,99706.97
2023-01-13T02:44:29.091Z,99708.41
2023-01-13T02:47:05.409Z,99711.69
2023-01-13T02:49:39.006Z,99706.53
2023-01-13T02:52:13.591Z,99703.06
2023-01-13T02:54:48.977Z,99701.34
2023-01-13T02:57:21.915Z,99694.44
2023-01-13T02:59:54.314Z,99694.28
2023-01-13T03:02:26.719Z,99695.31
2023-01-13T03:04:57.986Z,99696.97
2023-01-13T03:07:59.169Z,99690.66
2023-01-13T03:10:47.558Z,99687.13
2023-01-13T03:13:26.431Z,99688.97
2023-01-13T03:16:02.002Z,99685.34
2023-01-13T03:18:44.317Z,99680.09
2023-01-13T03:21:21.435Z,99685.19
2023-01-13T03:23:54.984Z,99681.75
2023-01-13T03:26:29.818Z,99679.13
2023-01-13T03:29:07.835Z,99683.63
2023-01-13T03:31:44.202Z,99684.41
2023-01-13T03:34:19.660Z,99678.31
2023-01-13T03:36:54.240Z,99680.00
2023-01-13T03:39:31.201Z,99678.13
2023-01-13T03:42:05.720Z,99679.00
2023-01-13T03:44:38.606Z,99673.75
2023-01-13T03:47:16.149Z,99674.53
2023-01-13T03:49:54.414Z,99669.13
2023-01-13T03:52:30.573Z,99666.59
2023-01-13T03:55:05.382Z,99674.53
2023-01-13T03:57:39.898Z,99669.22
2023-01-13T04:00:13.525Z,99664.97
2023-01-13T04:02:52.527Z,99663.16
2023-01-13T04:05:23.662Z,99656.66
2023-01-13T04:08:01.638Z,99664.66
2023-01-13T04:10:37.125Z,99662.06
2023-01-13T04:13:11.633Z,99656.50
2023-01-13T04:15:43.619Z,99656.50
2023-01-13T04:18:19.275Z,99653.81
2023-01-13T04:20:52.117Z,99651.72
2023-01-13T04:23:22.846Z,99645.69
2023-01-13T04:25:52.393Z,99640.28
2023-01-13T04:28:22.332Z,99643.03
2023-01-13T04:30:51.209Z,99647.72
2023-01-13T04:33:22.161Z,99643.94
2023-01-13T04:35:53.737Z,99639.66
2023-01-13T04:38:23.660Z,99645.69
2023-01-13T04:40:52.550Z,99645.50
2023-01-13T04:43:21.845Z,99637.47
2023-01-13T04:45:51.539Z,99639.16
2023-01-13T04:48:20.884Z,99655.47
2023-01-13T04:50:51.469Z,99650.94
2023-01-13T04:53:22.137Z,99647.94
2023-01-13T04:55:52.260Z,99651.72
2023-01-13T04:58:22.737Z,99649.78
2023-01-13T05:00:52.522Z,99656.19
2023-01-13T05:03:21.972Z,99645.38
2023-01-13T05:05:54.418Z,99647.25
2023-01-13T05:08:23.805Z,99642.72
2023-01-13T05:10:52.812Z,99648.69
2023-01-13T05:13:39.733Z,99642.72
2023-01-13T05:16:37.658Z,99645.47
2023-01-13T05:19:07.098Z,99646.06
2023-01-13T05:21:54.691Z,99650.78
2023-01-13T05:24:41.684Z,99650.06
2023-01-13T05:27:11.193Z,99653.78
2023-01-13T05:29:40.243Z,99653.84
2023-01-13T05:32:09.262Z,99654.38
2023-01-13T05:34:38.516Z,99664.03
2023-01-13T05:37:11.206Z,99661.38
2023-01-13T05:39:54.535Z,99664.97
2023-01-13T05:42:41.193Z,99664.03
2023-01-13T05:45:12.217Z,99663.25
2023-01-13T05:47:41.592Z,99663.94
2023-01-13T05:50:12.196Z,99651.56
2023-01-13T05:52:43.561Z,99659.63
2023-01-13T05:55:14.710Z,99675.63
2023-01-13T05:57:43.716Z,99672.97
2023-01-13T06:00:14.648Z,99677.13
2023-01-13T06:02:43.987Z,99675.50
2023-01-13T06:05:13.338Z,99671.41
2023-01-13T06:07:43.814Z,99676.69
2023-01-13T06:10:13.633Z,99679.41
2023-01-13T06:12:42.751Z,99696.19
2023-01-13T06:15:12.651Z,99692.59
2023-01-13T06:17:41.643Z,99709.28
2023-01-13T06:20:12.218Z,99708.59
2023-01-13T06:22:45.813Z,99709.22
2023-01-13T06:25:22.946Z,99711.91
2023-01-13T06:27:53.228Z,99715.50
2023-01-13T06:30:22.619Z,99715.34
2023-01-13T06:32:54.325Z,99715.63
2023-01-13T06:35:29.644Z,99717.38
2023-01-13T06:38:04.157Z,99712.13
2023-01-13T06:40:33.594Z,99717.22
2023-01-13T06:43:17.326Z,99713.47
2023-01-13T06:45:50.420Z,99721.38
2023-01-13T06:48:23.359Z,99721.59
2023-01-13T06:50:52.887Z,99717.50
2023-01-13T06:53:23.254Z,99719.97
2023-01-13T06:55:52.639Z,99724.44
2023-01-13T06:58:21.749Z,99715.41
2023-01-13T07:00:51.644Z,99711.03
2023-01-13T07:03:21.492Z,99713.59
2023-01-13T07:05:55.363Z,99721.47
2023-01-13T07:08:26.367Z,99713.47
2023-01-13T07:10:55.847Z,99712.91
2023-01-13T07:13:42.561Z,99705.84
2023-01-13T07:16:12.157Z,99713.94
2023-01-13T07:18:41.192Z,99715.50
2023-01-13T07:21:13.227Z,99723.34
2023-01-13T07:23:43.820Z,99729.63
2023-01-13T07:26:13.971Z,99727.63
2023-01-13T07:28:43.400Z,99728.75
2023-01-13T07:31:17.987Z,99731.41
2023-01-13T07:33:47.339Z,99740.84
2023-01-13T07:36:17.141Z,99737.28
2023-01-13T07:38:47.417Z,99742.56
2023-01-13T07:41:34.979Z,99745.28
2023-01-13T07:44:06.738Z,99738.88
2023-01-13T07:46:36.502Z,99747.66
2023-01-13T07:49:05.747Z,99744.16
2023-01-13T07:51:36.541Z,99743.81
2023-01-13T07:54:07.821Z,99741.94
2023-01-13T07:56:37.424Z,99741.94
2023-01-13T07:59:06.390Z,99746.25
2023-01-13T08:01:36.109Z,99743.81
2023-01-13T08:04:05.347Z,99750.72
2023-01-13T08:06:34.608Z,99754.72
2023-01-13T08:09:05.331Z,99753.31
2023-01-13T08:11:34.793Z,99753.31
2023-01-13T08:14:04.040Z,99757.31
2023-01-13T08:16:34.555Z,99756.31
2023-01-13T08:19:03.655Z,99758.19
2023-01-13T08:21:32.916Z,99753.72
2023-01-13T08:24:02.074Z,99753.72
2023-01-13T08:26:32.982Z,99752.66
2023-01-13T08:29:02.099Z,99755.53
2023-01-13T08:31:31.390Z,99755.59
2023-01-13T08:34:00.506Z,99754.41
2023-01-13T08:36:29.767Z,99759.75
2023-01-13T08:38:58.874Z,99766.97
2023-01-13T08:41:44.904Z,99752.19
2023-01-13T08:44:15.636Z,99759.97
2023-01-13T08:46:45.024Z,99775.06
2023-01-13T08:49:14.079Z,99773.56
2023-01-13T08:51:43.525Z,99781.56
2023-01-13T08:54:12.910Z,99787.53
2023-01-13T08:56:43.277Z,99787.44
2023-01-13T08:59:16.045Z,99786.53
2023-01-13T09:01:46.079Z,99797.25
2023-01-13T09:04:20.196Z,99795.22
2023-01-13T09:06:50.745Z,99803.38
2023-01-13T09:09:20.328Z,99798.81
2023-01-13T09:12:09.709Z,99800.41
2023-01-13T09:14:41.142Z,99795.88
2023-01-13T09:17:12.168Z,99796.00
2023-01-13T09:19:41.875Z,99807.47
2023-01-13T09:22:15.879Z,99797.56
2023-01-13T09:24:45.526Z,99799.13
2023-01-13T09:27:16.289Z,99792.69
2023-01-13T09:29:46.695Z,99793.47
2023-01-13T09:32:16.917Z,99792.94
2023-01-13T09:35:00.162Z,99803.47
2023-01-13T09:37:30.997Z,99800.88
2023-01-13T09:40:00.151Z,99798.91
2023-01-13T09:42:58.978Z,99799.44
2023-01-13T09:45:33.725Z,99797.88
2023-01-13T09:48:09.875Z,99796.91
2023-01-13T09:50:56.440Z,99799.00
2023-01-13T09:53:30.433Z,99799.59
2023-01-13T09:55:59.717Z,99811.38
2023-01-13T09:58:29.310Z,99804.41
2023-01-13T10:01:17.173Z,99813.28
2023-01-13T10:03:49.136Z,99809.81
2023-01-13T10:06:22.210Z,99807.31
2023-01-13T10:08:52.420Z,99802.44
2023-01-13T10:11:41.393Z,99803.06
2023-01-13T10:14:18.910Z,99809.88
2023-01-13T10:16:56.373Z,99809.09
2023-01-13T10:19:31.335Z,99805.41
2023-01-13T10:22:36.509Z,99808.88
2023-01-13T10:25:31.236Z,99810.28
2023-01-13T10:28:09.193Z,99804.00
2023-01-13T10:30:40.396Z,99794.97
2023-01-13T10:33:15.869Z,99802.81
2023-01-13T10:36:00.283Z,99816.41
2023-01-13T10:38:32.184Z,99810.00
2023-01-13T10:41:03.357Z,99807.03
2023-01-13T10:43:33.505Z,99796.13
2023-01-13T10:46:06.468Z,99795.78
2023-01-13T10:48:42.468Z,99796.56
2023-01-13T10:51:23.210Z,99791.94
2023-01-13T10:53:58.768Z,99789.16
2023-01-13T10:56:30.915Z,99782.81
2023-01-13T10:59:23.548Z,99769.09
2023-01-13T11:02:03.891Z,99767.97
2023-01-13T11:04:38.212Z,99761.34
2023-01-13T11:07:21.670Z,99762.03
2023-01-13T11:10:12.098Z,99763.09
2023-01-13T11:12:50.869Z,99775.56
2023-01-13T11:15:24.872Z,99771.78
2023-01-13T11:18:00.814Z,99757.72
2023-01-13T11:20:37.160Z,99758.50
2023-01-13T11:23:16.897Z,99756.59
2023-01-13T11:25:50.417Z,99752.66
2023-01-13T11:28:50.312Z,99760.41
2023-01-13T11:31:24.557Z,99769.88
2023-01-13T11:34:00.820Z,99762.63
2023-01-13T11:36:39.376Z,99776.78
2023-01-13T11:39:22.324Z,99773.25
2023-01-13T11:42:12.717Z,99781.09
2023-01-13T11:44:47.613Z,99790.06
2023-01-13T11:47:22.478Z,99784.72
2023-01-13T11:49:52.028Z,99790.00
2023-01-13T11:52:30.724Z,99788.88
2023-01-13T11:55:15.458Z,99784.66
2023-01-13T11:57:56.952Z,99803.38
2023-01-13T12:01:00.430Z,99794.22
2023-01-13T12:03:35.830Z,99799.38
2023-01-13T12:06:21.043Z,99800.16
2023-01-13T12:09:05.069Z,99802.50
2023-01-13T12:12:00.264Z,99803.28
2023-01-13T12:14:39.879Z,99799.38
2023-01-13T12:17:21.342Z,99789.69
2023-01-13T12:19:52.573Z,99789.63
2023-01-13T12:22:27.387Z,99785.22
2023-01-13T12:25:07.812Z,99773.56
2023-01-13T12:27:47.268Z,99771.16
2023-01-13T12:30:26.692Z,99768.28
2023-01-13T12:33:01.089Z,99797.16
2023-01-13T12:35:40.048Z,99803.53
2023-01-13T12:38:19.463Z,99798.34
2023-01-13T12:40:57.745Z,99792.13
2023-01-13T12:43:44.807Z,99778.69
2023-01-13T12:46:53.395Z,99777.28
2023-01-13T12:49:25.301Z,99763.91
2023-01-13T12:52:24.586Z,99779.28
2023-01-13T12:55:15.536Z,99784.81
2023-01-13T12:58:27.245Z,99798.53
2023-01-13T13:01:01.340Z,99795.75
2023-01-13T13:03:35.659Z,99798.53
2023-01-13T13:06:19.614Z,99795.00
2023-01-13T13:09:03.667Z,99779.19
2023-01-13T13:11:59.375Z,99783.78
2023-01-13T13:15:07.191Z,99778.63
2023-01-13T13:17:43.472Z,99777.91
2023-01-13T13:20:53.846Z,99788.53
2023-01-13T13:24:01.092Z,99791.63
2023-01-13T13:26:38.516Z,99790.25
2023-01-13T13:29:39.247Z,99784.38
2023-01-13T13:32:47.132Z,99764.72
2023-01-13T13:35:32.407Z,99779.19
2023-01-13T13:38:34.905Z,99777.66
2023-01-13T13:41:29.814Z,99780.47
2023-01-13T13:44:21.634Z,99785.81
2023-01-13T13:46:51.467Z,99783.47
2023-01-13T13:49:22.384Z,99783.81
2023-01-13T13:52:00.957Z,99784.84
2023-01-13T13:54:30.654Z,99781.16
2023-01-13T13:57:01.041Z,99789.41
2023-01-13T13:59:33.630Z,99788.88
2023-01-13T14:02:04.962Z,99809.47
2023-01-13T14:04:41.378Z,99810.34
2023-01-13T14:07:21.078Z,99815.16
2023-01-13T14:09:53.786Z,99807.81
2023-01-13T14:12:25.703Z,99841.09
2023-01-13T14:14:57.490Z,99825.53
2023-01-13T14:17:29.786Z,99807.22
2023-01-13T14:20:07.995Z,99821.03
2023-01-13T14:22:40.584Z,99821.91
2023-01-13T14:25:29.941Z,99834.94
2023-01-13T14:28:04.265Z,99824.72
2023-01-13T14:30:35.150Z,99845.03
2023-01-13T14:33:06.613Z,99853.28
2023-01-13T14:35:35.883Z,99846.66
2023-01-13T14:38:06.575Z,99844.22
2023-01-13T14:40:46.544Z,99851.59
2023-01-13T14:43:19.332Z,99858.06
2023-01-13T14:46:00.133Z,99844.97
2023-01-13T14:48:35.612Z,99866.53
2023-01-13T14:51:06.781Z,99853.63
2023-01-13T14:53:43.240Z,99849.38
2023-01-13T14:56:44.531Z,99833.81
2023-01-13T14:59:36.804Z,99842.03
2023-01-13T15:02:38.293Z,99853.97
2023-01-13T15:05:49.303Z,99875.94
2023-01-13T15:08:28.889Z,99875.16
2023-01-13T15:11:03.280Z,99869.16
2023-01-13T15:13:45.416Z,99866.06
2023-01-13T15:16:24.464Z,99877.06
2023-01-13T15:18:54.332Z,99869.94
2023-01-13T15:21:24.771Z,99863.63
2023-01-13T15:23:53.866Z,99861.88
2023-01-13T15:26:27.758Z,99859.38
2023-01-13T15:28:58.550Z,99870.06
2023-01-13T15:31:29.244Z,99855.38
2023-01-13T15:33:58.896Z,99871.59
2023-01-13T15:36:31.262Z,99861.34
2023-01-13T15:39:02.316Z,99865.91
2023-01-13T15:42:02.106Z,99855.50
2023-01-13T15:44:48.735Z,99853.78
2023-01-13T15:47:18.201Z,99849.38
2023-01-13T15:49:48.427Z,99851.13
2023-01-13T15:52:22.045Z,99851.13
2023-01-13T15:54:55.050Z,99860.81
2023-01-13T15:57:27.789Z,99856.28
2023-01-13T15:59:58.936Z,99853.78
2023-01-13T16:02:31.131Z,99849.34
2023-01-13T16:05:00.354Z,99853.72
2023-01-13T16:07:29.614Z,99856.28
2023-01-13T16:10:01.766Z,99880.22
2023-01-13T16:12:38.199Z,99915.19
2023-01-13T16:15:10.475Z,99903.47
2023-01-13T16:17:41.485Z,99888.69
2023-01-13T16:20:14.542Z,99903.78
2023-01-13T16:22:46.340Z,99892.28
2023-01-13T16:25:19.072Z,99887.09
2023-01-13T16:27:51.485Z,99900.53
2023-01-13T16:30:26.744Z,99899.84
2023-01-13T16:32:56.712Z,99893.72
2023-01-13T16:35:26.491Z,99907.75
2023-01-13T16:37:58.455Z,99906.03
2023-01-13T16:40:31.283Z,99916.00
2023-01-13T16:43:03.740Z,99908.03
2023-01-13T16:45:33.608Z,99903.97
2023-01-13T16:48:03.351Z,99907.69
2023-01-13T16:50:37.456Z,99907.69
2023-01-13T16:53:09.307Z,99912.22
2023-01-13T16:55:39.978Z,99903.34
2023-01-13T16:58:18.137Z,99907.00
2023-01-13T17:00:48.532Z,99910.72
2023-01-13T17:03:18.438Z,99911.06
2023-01-13T17:05:48.313Z,99911.25
2023-01-13T17:08:19.076Z,99908.66
2023-01-13T17:10:49.377Z,99913.19
2023-01-13T17:13:20.944Z,99916.03
2023-01-13T17:15:50.099Z,99918.00
2023-01-13T17:18:19.393Z,99919.88
2023-01-13T17:20:48.594Z,99928.81
2023-01-13T17:23:18.173Z,99926.94
2023-01-13T17:25:47.354Z,99923.53
2023-01-13T17:28:16.662Z,99931.50
2023-01-13T17:30:47.171Z,99927.31
2023-01-13T17:33:16.592Z,99927.41
2023-01-13T17:35:46.199Z,99928.28
2023-01-13T17:38:15.245Z,99932.88
2023-01-13T17:40:44.342Z,99936.59
2023-01-13T17:43:13.632Z,99934.75
2023-01-13T17:45:43.029Z,99937.25
2023-01-13T17:48:13.913Z,99946.44
2023-01-13T17:50:48.619Z,99950.81
2023-01-13T17:53:18.213Z,99953.47
2023-01-13T17:55:51.722Z,99958.69
2023-01-13T17:58:21.938Z,99955.06
2023-01-13T18:00:51.773Z,99957.88
2023-01-13T18:03:23.175Z,99959.47
2023-01-13T18:05:52.493Z,99966.41
2023-01-13T18:08:23.732Z,99952.94
2023-01-13T18:10:54.734Z,99961.09
2023-01-13T18:13:24.156Z,99953.03
2023-01-13T18:16:03.114Z,99945.94
2023-01-13T18:18:35.594Z,99958.44
2023-01-13T18:21:23.063Z,99966.59
2023-01-13T18:24:10.215Z,99962.38
2023-01-13T18:26:56.974Z,99967.56
2023-01-13T18:29:26.430Z,99966.03
2023-01-13T18:31:55.459Z,99959.91
2023-01-13T18:34:26.223Z,99962.59
2023-01-13T18:36:56.130Z,99958.34
2023-01-13T18:39:25.423Z,99969.09
2023-01-13T18:42:12.147Z,99970.09
2023-01-13T18:44:43.975Z,99962.19
2023-01-13T18:47:13.234Z,99967.59
2023-01-13T18:49:43.916Z,99970.19
2023-01-13T18:52:14.159Z,99973.88
2023-01-13T18:54:43.460Z,99982.03
2023-01-13T18:57:14.767Z,99979.53
2023-01-13T18:59:47.437Z,99983.22
2023-01-13T19:02:18.115Z,99972.59
2023-01-13T19:04:49.200Z,99968.97
2023-01-13T19:07:23.597Z,99976.69
2023-01-13T19:09:55.340Z,99969.69
2023-01-13T19:12:27.547Z,99978.56
2023-01-13T19:14:58.109Z,99972.41
2023-01-13T19:17:31.233Z,99974.28
2023-01-13T19:20:02.115Z,99988.53
2023-01-13T19:22:36.775Z,99990.25
2023-01-13T19:25:08.950Z,99980.81
2023-01-13T19:27:40.232Z,99987.97
2023-01-13T19:30:15.818Z,99980.16
2023-01-13T19:32:47.836Z,99991.78
2023-01-13T19:35:19.962Z,99986.38
2023-01-13T19:37:49.560Z,99990.81
2023-01-13T19:40:19.417Z,99989.22
2023-01-13T19:43:05.647Z,99988.53
2023-01-13T19:45:36.282Z,99978.94
2023-01-13T19:48:08.527Z,99987.00
2023-01-13T19:50:40.823Z,99981.00
2023-01-13T19:53:15.539Z,99987.25
2023-01-13T19:55:48.611Z,99988.28
2023-01-13T19:58:18.907Z,99983.78
2023-01-13T20:00:49.291Z,99977.53
2023-01-13T20:03:23.634Z,99983.78
2023-01-13T20:05:58.025Z,99982.34
2023-01-13T20:08:27.140Z,99981.44
2023-01-13T20:11:16.509Z,99979.75
2023-01-13T20:13:45.774Z,99980.09
2023-01-13T20:16:15.465Z,99987.06
2023-01-13T20:18:44.602Z,99988.13
2023-01-13T20:21:15.485Z,99991.78
2023-01-13T20:23:46.196Z,99989.16
2023-01-13T20:26:16.113Z,99992.75
2023-01-13T20:28:45.288Z,99990.19
2023-01-13T20:31:16.778Z,99990.34
2023-01-13T20:33:51.594Z,99991.28
2023-01-13T20:36:31.335Z,100002.69
2023-01-13T20:39:01.685Z,99989.38
2023-01-13T20:41:49.206Z,99997.56
2023-01-13T20:44:18.608Z,99996.00
2023-01-13T20:46:47.900Z,100008.47
2023-01-13T20:49:19.647Z,99997.84
2023-01-13T20:51:50.680Z,100010.22
2023-01-13T20:54:20.321Z,100012.16
2023-01-13T20:56:49.995Z,100004.25
2023-01-13T20:59:20.038Z,100005.16
2023-01-13T21:01:49.614Z,99999.78
2023-01-13T21:04:18.709Z,100007.97
2023-01-13T21:06:49.926Z,100007.16
2023-01-13T21:09:19.406Z,100004.69
2023-01-13T21:12:05.990Z,100004.69
2023-01-13T21:14:53.079Z,100010.00
2023-01-13T21:17:54.163Z,100012.56
2023-01-13T21:20:23.647Z,100006.44
2023-01-13T21:22:54.511Z,100010.75
2023-01-13T21:25:25.866Z,100008.16
2023-01-13T21:28:04.133Z,100026.88
2023-01-13T21:30:34.295Z,100025.31
2023-01-13T21:33:05.416Z,100026.22
2023-01-13T21:35:34.918Z,100029.69
2023-01-13T21:38:06.425Z,100026.13
2023-01-13T21:40:37.137Z,100027.16
2023-01-13T21:43:23.934Z,100028.13
2023-01-13T21:46:10.282Z,100021.94
2023-01-13T21:48:39.766Z,100035.19
2023-01-13T21:51:08.875Z,100023.78
2023-01-13T21:53:40.651Z,100027.38
2023-01-13T21:56:10.993Z,100031.94
2023-01-13T21:58:40.578Z,100035.34
2023-01-13T22:01:11.967Z,100035.41
2023-01-13T22:03:59.593Z,100029.34
2023-01-13T22:06:28.904Z,100034.50
2023-01-13T22:09:01.247Z,100031.78
2023-01-13T22:11:31.777Z,100033.44
2023-01-13T22:14:07.588Z,100018.47
2023-01-13T22:16:39.415Z,100023.78
2023-01-13T22:19:10.500Z,100021.91
2023-01-13T22:21:40.084Z,100030.50
2023-01-13T22:24:11.771Z,100032.25
2023-01-13T22:26:40.916Z,100023.34
2023-01-13T22:29:10.228Z,100026.75
2023-01-13T22:31:40.217Z,100022.19
2023-01-13T22:34:12.952Z,100031.84
2023-01-13T22:36:41.995Z,100028.16
2023-01-13T22:39:12.827Z,100026.50
2023-01-13T22:41:42.100Z,100029.84
2023-01-13T22:44:11.452Z,100035.28
2023-01-13T22:46:40.610Z,100036.94
2023-01-13T22:49:09.898Z,100030.66
2023-01-13T22:51:39.283Z,100042.25
2023-01-13T22:54:08.923Z,100044.97
2023-01-13T22:56:39.842Z,100040.63
2023-01-13T22:59:12.041Z,100040.53
2023-01-13T23:01:42.205Z,100044.31
2023-01-13T23:04:13.949Z,100052.25
2023-01-13T23:06:43.243Z,100051.25
2023-01-13T23:09:12.606Z,100047.78
2023-01-13T23:11:43.374Z,100043.25
2023-01-13T23:14:13.953Z,100056.53
2023-01-13T23:16:43.155Z,100055.84
2023-01-13T23:19:13.454Z,100057.84
2023-01-13T23:21:42.671Z,100047.31
2023-01-13T23:24:12.167Z,100052.63
2023-01-13T23:26:42.972Z,100049.91
2023-01-13T23:29:14.935Z,100048.25
2023-01-13T23:31:44.311Z,100049.97
2023-01-13T23:34:13.629Z,100052.66
2023-01-13T23:36:43.834Z,100048.19
2023-01-13T23:39:16.412Z,100049.06
2023-01-13T23:41:46.828Z,100045.47
2023-01-13T23:44:16.453Z,100037.47
2023-01-13T23:46:45.634Z,100042.97
2023-01-13T23:49:14.899Z,100035.81
2023-01-13T23:51:44.112Z,100050.09
2023-01-13T23:54:13.438Z,100038.59
2023-01-13T23:56:42.818Z,100044.78
2023-01-13T23:59:13.780Z,100045.66
